Current Conditions
Mostly Cloudy
Conditions



Pressure
1011.92 (mb) - 29.88 (inHG)
Visibility

6.2 (miles) - 10.0 (km)
   Temperature
19  °C
66°F
11  °C
Dewpoint
60  %
 Humidity
   Wind Speed
12  kts
14  mph
23  km/h
6.3  m/s
   Wind Direction
 180°
Due South
   Airport Data
EGHI
Location Southampton Airport 35 mi (56.32 km)
Metar :EGHI 291220Z 18012KT 140V230 9999 BKN026 19/11 Q1012
Wed 29th June 13:20 pm
   Raw Metar Info
Raw METAR is the most common format in the world for the transmission of observational weather data. It is highly standardized through the International Civil Aviation Organization (ICAO), which allows it to be understood throughout most of the world.
   API Info
Data Provided by
https://www.checkwx.com/weather/EGHI
   © Info
CSS/SVG/PHP scripts were developed by weather34.com for use in the weather34 template © 2015-2022

Guide Info provided by Metar-Wikipedia